sensor_id;sensor_type;location;lat;lon;timestamp;P1;durP1;ratioP1;P2;durP2;ratioP2
18738;SDS011;9498;51.862;19.460;2023-06-10T00:01:55;24.40;;;14.40;;
18738;SDS011;9498;51.862;19.460;2023-06-10T00:04:26;21.07;;;14.33;;
18738;SDS011;9498;51.862;19.460;2023-06-10T00:06:54;21.10;;;14.00;;
18738;SDS011;9498;51.862;19.460;2023-06-10T00:09:22;22.30;;;14.27;;
18738;SDS011;9498;51.862;19.460;2023-06-10T00:11:49;20.63;;;14.83;;
18738;SDS011;9498;51.862;19.460;2023-06-10T00:14:17;20.80;;;13.60;;
18738;SDS011;9498;51.862;19.460;2023-06-10T00:16:44;24.70;;;14.17;;
18738;SDS011;9498;51.862;19.460;2023-06-10T00:19:11;23.97;;;15.30;;
18738;SDS011;9498;51.862;19.460;2023-06-10T00:21:42;23.10;;;14.33;;
18738;SDS011;9498;51.862;19.460;2023-06-10T00:24:10;23.63;;;14.43;;
18738;SDS011;9498;51.862;19.460;2023-06-10T00:26:37;22.20;;;14.63;;
18738;SDS011;9498;51.862;19.460;2023-06-10T00:29:05;26.10;;;15.97;;
18738;SDS011;9498;51.862;19.460;2023-06-10T00:31:33;23.60;;;15.37;;
18738;SDS011;9498;51.862;19.460;2023-06-10T00:34:00;25.17;;;15.30;;
18738;SDS011;9498;51.862;19.460;2023-06-10T00:36:28;24.30;;;15.87;;
18738;SDS011;9498;51.862;19.460;2023-06-10T00:38:57;21.20;;;14.93;;
18738;SDS011;9498;51.862;19.460;2023-06-10T00:41:25;23.63;;;15.13;;
18738;SDS011;9498;51.862;19.460;2023-06-10T00:43:52;24.77;;;15.63;;
18738;SDS011;9498;51.862;19.460;2023-06-10T00:46:20;25.13;;;15.97;;
18738;SDS011;9498;51.862;19.460;2023-06-10T00:48:48;21.60;;;14.53;;
18738;SDS011;9498;51.862;19.460;2023-06-10T00:51:15;23.13;;;15.70;;
18738;SDS011;9498;51.862;19.460;2023-06-10T00:53:43;22.37;;;15.97;;
18738;SDS011;9498;51.862;19.460;2023-06-10T00:56:12;24.63;;;16.90;;
18738;SDS011;9498;51.862;19.460;2023-06-10T00:58:40;31.07;;;16.87;;
18738;SDS011;9498;51.862;19.460;2023-06-10T01:01:07;28.23;;;17.50;;
18738;SDS011;9498;51.862;19.460;2023-06-10T01:03:36;26.97;;;16.40;;
18738;SDS011;9498;51.862;19.460;2023-06-10T01:06:06;28.77;;;16.87;;
18738;SDS011;9498;51.862;19.460;2023-06-10T01:08:35;25.20;;;16.30;;
18738;SDS011;9498;51.862;19.460;2023-06-10T01:11:06;22.80;;;15.73;;
18738;SDS011;9498;51.862;19.460;2023-06-10T01:13:36;28.60;;;16.50;;
18738;SDS011;9498;51.862;19.460;2023-06-10T01:16:05;23.77;;;16.40;;
18738;SDS011;9498;51.862;19.460;2023-06-10T01:18:33;30.77;;;16.83;;
18738;SDS011;9498;51.862;19.460;2023-06-10T01:21:00;28.70;;;16.80;;
18738;SDS011;9498;51.862;19.460;2023-06-10T01:23:30;30.13;;;17.40;;
18738;SDS011;9498;51.862;19.460;2023-06-10T01:25:59;25.83;;;17.40;;
18738;SDS011;9498;51.862;19.460;2023-06-10T01:28:27;29.37;;;17.63;;
18738;SDS011;9498;51.862;19.460;2023-06-10T01:30:59;22.87;;;16.10;;
18738;SDS011;9498;51.862;19.460;2023-06-10T01:33:28;26.33;;;16.63;;
18738;SDS011;9498;51.862;19.460;2023-06-10T01:35:56;25.57;;;17.37;;
18738;SDS011;9498;51.862;19.460;2023-06-10T01:38:23;28.80;;;17.07;;
18738;SDS011;9498;51.862;19.460;2023-06-10T01:40:53;25.63;;;17.23;;
18738;SDS011;9498;51.862;19.460;2023-06-10T01:43:22;28.17;;;17.70;;
18738;SDS011;9498;51.862;19.460;2023-06-10T01:45:49;26.80;;;17.23;;
18738;SDS011;9498;51.862;19.460;2023-06-10T01:48:17;32.43;;;18.73;;
18738;SDS011;9498;51.862;19.460;2023-06-10T01:50:44;26.53;;;17.70;;
18738;SDS011;9498;51.862;19.460;2023-06-10T01:53:11;27.27;;;18.47;;
18738;SDS011;9498;51.862;19.460;2023-06-10T01:55:39;28.13;;;17.93;;
18738;SDS011;9498;51.862;19.460;2023-06-10T01:58:07;28.43;;;17.67;;
18738;SDS011;9498;51.862;19.460;2023-06-10T02:00:35;27.30;;;16.77;;
18738;SDS011;9498;51.862;19.460;2023-06-10T02:03:02;26.77;;;17.43;;
18738;SDS011;9498;51.862;19.460;2023-06-10T02:05:29;30.10;;;18.47;;
18738;SDS011;9498;51.862;19.460;2023-06-10T02:07:57;27.30;;;17.90;;
18738;SDS011;9498;51.862;19.460;2023-06-10T02:10:24;27.17;;;16.40;;
18738;SDS011;9498;51.862;19.460;2023-06-10T02:12:51;25.30;;;16.60;;
18738;SDS011;9498;51.862;19.460;2023-06-10T02:15:20;24.53;;;15.87;;
18738;SDS011;9498;51.862;19.460;2023-06-10T02:17:47;30.53;;;17.53;;
18738;SDS011;9498;51.862;19.460;2023-06-10T02:20:15;27.80;;;17.57;;
18738;SDS011;9498;51.862;19.460;2023-06-10T02:22:43;26.23;;;18.43;;
18738;SDS011;9498;51.862;19.460;2023-06-10T02:25:10;27.33;;;18.03;;
18738;SDS011;9498;51.862;19.460;2023-06-10T02:27:37;27.73;;;17.03;;
18738;SDS011;9498;51.862;19.460;2023-06-10T02:30:05;27.07;;;18.20;;
18738;SDS011;9498;51.862;19.460;2023-06-10T02:32:36;28.10;;;17.77;;
18738;SDS011;9498;51.862;19.460;2023-06-10T02:35:03;26.17;;;17.57;;
18738;SDS011;9498;51.862;19.460;2023-06-10T02:37:31;27.87;;;18.33;;
18738;SDS011;9498;51.862;19.460;2023-06-10T02:39:58;26.07;;;16.83;;
18738;SDS011;9498;51.862;19.460;2023-06-10T02:42:26;26.17;;;18.10;;
18738;SDS011;9498;51.862;19.460;2023-06-10T02:44:53;29.07;;;18.13;;
18738;SDS011;9498;51.862;19.460;2023-06-10T02:47:20;27.70;;;16.87;;
18738;SDS011;9498;51.862;19.460;2023-06-10T02:49:49;27.43;;;17.60;;
18738;SDS011;9498;51.862;19.460;2023-06-10T02:52:17;25.13;;;16.67;;
18738;SDS011;9498;51.862;19.460;2023-06-10T02:54:45;32.27;;;19.93;;
18738;SDS011;9498;51.862;19.460;2023-06-10T02:57:12;27.27;;;18.10;;
18738;SDS011;9498;51.862;19.460;2023-06-10T02:59:40;26.17;;;17.70;;
18738;SDS011;9498;51.862;19.460;2023-06-10T03:02:07;26.17;;;18.60;;
18738;SDS011;9498;51.862;19.460;2023-06-10T03:04:37;25.20;;;18.00;;
18738;SDS011;9498;51.862;19.460;2023-06-10T03:07:05;23.53;;;17.63;;
18738;SDS011;9498;51.862;19.460;2023-06-10T03:09:33;28.17;;;18.47;;
18738;SDS011;9498;51.862;19.460;2023-06-10T03:12:00;26.37;;;18.30;;
18738;SDS011;9498;51.862;19.460;2023-06-10T03:14:28;28.00;;;17.90;;
18738;SDS011;9498;51.862;19.460;2023-06-10T03:16:55;27.40;;;18.57;;
18738;SDS011;9498;51.862;19.460;2023-06-10T03:19:22;27.13;;;17.97;;
18738;SDS011;9498;51.862;19.460;2023-06-10T03:21:57;28.47;;;17.20;;
18738;SDS011;9498;51.862;19.460;2023-06-10T03:24:26;24.83;;;17.03;;
18738;SDS011;9498;51.862;19.460;2023-06-10T03:26:53;27.17;;;16.83;;
18738;SDS011;9498;51.862;19.460;2023-06-10T03:29:21;25.63;;;17.33;;
18738;SDS011;9498;51.862;19.460;2023-06-10T03:31:48;28.93;;;18.07;;
18738;SDS011;9498;51.862;19.460;2023-06-10T03:34:16;28.67;;;17.00;;
18738;SDS011;9498;51.862;19.460;2023-06-10T03:36:43;27.30;;;16.20;;
18738;SDS011;9498;51.862;19.460;2023-06-10T03:39:10;25.40;;;15.47;;
18738;SDS011;9498;51.862;19.460;2023-06-10T03:41:39;26.83;;;14.97;;
18738;SDS011;9498;51.862;19.460;2023-06-10T03:44:06;21.53;;;14.53;;
18738;SDS011;9498;51.862;19.460;2023-06-10T03:46:34;25.70;;;13.93;;
18738;SDS011;9498;51.862;19.460;2023-06-10T03:49:01;24.90;;;14.30;;
18738;SDS011;9498;51.862;19.460;2023-06-10T03:51:28;20.87;;;13.10;;
18738;SDS011;9498;51.862;19.460;2023-06-10T03:53:56;23.20;;;13.07;;
18738;SDS011;9498;51.862;19.460;2023-06-10T03:56:23;21.70;;;12.57;;
18738;SDS011;9498;51.862;19.460;2023-06-10T03:58:52;23.23;;;12.17;;
18738;SDS011;9498;51.862;19.460;2023-06-10T04:01:20;19.23;;;11.27;;
18738;SDS011;9498;51.862;19.460;2023-06-10T04:03:48;24.57;;;12.03;;
18738;SDS011;9498;51.862;19.460;2023-06-10T04:06:17;16.50;;;11.30;;
18738;SDS011;9498;51.862;19.460;2023-06-10T04:08:44;18.83;;;11.07;;
18738;SDS011;9498;51.862;19.460;2023-06-10T04:11:12;17.30;;;10.07;;
18738;SDS011;9498;51.862;19.460;2023-06-10T04:13:40;17.93;;;9.60;;
18738;SDS011;9498;51.862;19.460;2023-06-10T04:16:08;18.40;;;10.27;;
18738;SDS011;9498;51.862;19.460;2023-06-10T04:18:35;22.60;;;9.90;;
18738;SDS011;9498;51.862;19.460;2023-06-10T04:21:03;11.63;;;8.43;;
18738;SDS011;9498;51.862;19.460;2023-06-10T04:23:30;12.90;;;8.30;;
18738;SDS011;9498;51.862;19.460;2023-06-10T04:25:57;17.20;;;8.47;;
18738;SDS011;9498;51.862;19.460;2023-06-10T04:28:25;14.97;;;8.50;;
18738;SDS011;9498;51.862;19.460;2023-06-10T04:30:53;13.90;;;7.73;;
18738;SDS011;9498;51.862;19.460;2023-06-10T04:33:21;16.93;;;7.93;;
18738;SDS011;9498;51.862;19.460;2023-06-10T04:35:49;16.50;;;8.07;;
18738;SDS011;9498;51.862;19.460;2023-06-10T04:38:17;19.60;;;7.70;;
18738;SDS011;9498;51.862;19.460;2023-06-10T04:40:44;14.50;;;7.57;;
18738;SDS011;9498;51.862;19.460;2023-06-10T04:43:11;13.30;;;7.30;;
18738;SDS011;9498;51.862;19.460;2023-06-10T04:45:39;14.37;;;7.23;;
18738;SDS011;9498;51.862;19.460;2023-06-10T04:48:10;11.77;;;6.83;;
18738;SDS011;9498;51.862;19.460;2023-06-10T04:50:38;12.83;;;6.43;;
18738;SDS011;9498;51.862;19.460;2023-06-10T04:53:05;14.10;;;6.63;;
18738;SDS011;9498;51.862;19.460;2023-06-10T04:55:33;12.80;;;6.87;;
18738;SDS011;9498;51.862;19.460;2023-06-10T04:58:01;11.30;;;6.20;;
18738;SDS011;9498;51.862;19.460;2023-06-10T05:00:28;14.07;;;6.40;;
18738;SDS011;9498;51.862;19.460;2023-06-10T05:02:55;14.40;;;6.50;;
18738;SDS011;9498;51.862;19.460;2023-06-10T05:05:23;11.83;;;6.30;;
18738;SDS011;9498;51.862;19.460;2023-06-10T05:07:51;12.90;;;6.47;;
18738;SDS011;9498;51.862;19.460;2023-06-10T05:10:19;16.17;;;6.67;;
18738;SDS011;9498;51.862;19.460;2023-06-10T05:12:46;13.23;;;6.13;;
18738;SDS011;9498;51.862;19.460;2023-06-10T05:15:13;11.57;;;5.50;;
18738;SDS011;9498;51.862;19.460;2023-06-10T05:17:41;14.87;;;6.47;;
18738;SDS011;9498;51.862;19.460;2023-06-10T05:20:09;12.97;;;5.70;;
18738;SDS011;9498;51.862;19.460;2023-06-10T05:22:36;11.10;;;5.90;;
18738;SDS011;9498;51.862;19.460;2023-06-10T05:25:06;11.90;;;6.30;;
18738;SDS011;9498;51.862;19.460;2023-06-10T05:27:33;11.27;;;5.33;;
18738;SDS011;9498;51.862;19.460;2023-06-10T05:30:00;10.23;;;5.90;;
18738;SDS011;9498;51.862;19.460;2023-06-10T05:32:29;9.63;;;5.50;;
18738;SDS011;9498;51.862;19.460;2023-06-10T05:34:56;11.73;;;5.43;;
18738;SDS011;9498;51.862;19.460;2023-06-10T05:37:25;16.70;;;5.63;;
18738;SDS011;9498;51.862;19.460;2023-06-10T05:39:52;14.13;;;5.80;;
18738;SDS011;9498;51.862;19.460;2023-06-10T05:42:21;14.23;;;5.30;;
18738;SDS011;9498;51.862;19.460;2023-06-10T05:44:48;11.70;;;6.00;;
18738;SDS011;9498;51.862;19.460;2023-06-10T05:47:15;10.60;;;5.93;;
18738;SDS011;9498;51.862;19.460;2023-06-10T05:49:42;12.20;;;5.83;;
18738;SDS011;9498;51.862;19.460;2023-06-10T05:52:10;15.93;;;6.40;;
18738;SDS011;9498;51.862;19.460;2023-06-10T05:54:38;12.83;;;5.40;;
18738;SDS011;9498;51.862;19.460;2023-06-10T05:57:05;12.60;;;5.40;;
18738;SDS011;9498;51.862;19.460;2023-06-10T05:59:34;14.67;;;5.67;;
18738;SDS011;9498;51.862;19.460;2023-06-10T06:02:01;9.87;;;5.67;;
18738;SDS011;9498;51.862;19.460;2023-06-10T06:04:28;13.90;;;6.17;;
18738;SDS011;9498;51.862;19.460;2023-06-10T06:06:56;11.97;;;6.00;;
18738;SDS011;9498;51.862;19.460;2023-06-10T06:09:23;13.43;;;6.07;;
18738;SDS011;9498;51.862;19.460;2023-06-10T06:11:50;12.40;;;6.07;;
18738;SDS011;9498;51.862;19.460;2023-06-10T06:14:17;12.17;;;5.97;;
18738;SDS011;9498;51.862;19.460;2023-06-10T06:16:46;11.43;;;5.87;;
18738;SDS011;9498;51.862;19.460;2023-06-10T06:19:13;9.47;;;5.93;;
18738;SDS011;9498;51.862;19.460;2023-06-10T06:21:41;10.57;;;6.00;;
18738;SDS011;9498;51.862;19.460;2023-06-10T06:24:08;17.13;;;6.20;;
18738;SDS011;9498;51.862;19.460;2023-06-10T06:26:35;12.33;;;5.90;;
18738;SDS011;9498;51.862;19.460;2023-06-10T06:29:03;12.97;;;6.37;;
18738;SDS011;9498;51.862;19.460;2023-06-10T06:31:30;11.10;;;5.57;;
18738;SDS011;9498;51.862;19.460;2023-06-10T06:33:59;12.30;;;6.20;;
18738;SDS011;9498;51.862;19.460;2023-06-10T06:36:26;13.40;;;5.90;;
18738;SDS011;9498;51.862;19.460;2023-06-10T06:38:53;12.93;;;6.53;;
18738;SDS011;9498;51.862;19.460;2023-06-10T06:41:20;10.77;;;5.57;;
18738;SDS011;9498;51.862;19.460;2023-06-10T06:43:48;14.17;;;6.70;;
18738;SDS011;9498;51.862;19.460;2023-06-10T06:46:15;12.03;;;6.53;;
18738;SDS011;9498;51.862;19.460;2023-06-10T06:48:42;13.50;;;6.27;;
18738;SDS011;9498;51.862;19.460;2023-06-10T06:51:11;9.80;;;6.00;;
18738;SDS011;9498;51.862;19.460;2023-06-10T06:53:38;15.07;;;6.17;;
18738;SDS011;9498;51.862;19.460;2023-06-10T06:56:09;13.13;;;6.70;;
18738;SDS011;9498;51.862;19.460;2023-06-10T06:58:36;16.83;;;6.93;;
18738;SDS011;9498;51.862;19.460;2023-06-10T07:01:03;16.73;;;6.07;;
18738;SDS011;9498;51.862;19.460;2023-06-10T07:03:31;15.97;;;6.70;;
18738;SDS011;9498;51.862;19.460;2023-06-10T07:05:58;15.87;;;6.50;;
18738;SDS011;9498;51.862;19.460;2023-06-10T07:08:27;12.57;;;6.47;;
18738;SDS011;9498;51.862;19.460;2023-06-10T07:10:54;13.67;;;6.87;;
18738;SDS011;9498;51.862;19.460;2023-06-10T07:13:21;11.57;;;6.17;;
18738;SDS011;9498;51.862;19.460;2023-06-10T07:15:49;18.67;;;6.77;;
18738;SDS011;9498;51.862;19.460;2023-06-10T07:18:16;12.80;;;6.13;;
18738;SDS011;9498;51.862;19.460;2023-06-10T07:20:43;14.20;;;6.50;;
18738;SDS011;9498;51.862;19.460;2023-06-10T07:23:11;13.83;;;7.00;;
18738;SDS011;9498;51.862;19.460;2023-06-10T07:25:40;14.27;;;7.33;;
18738;SDS011;9498;51.862;19.460;2023-06-10T07:28:07;20.00;;;7.33;;
18738;SDS011;9498;51.862;19.460;2023-06-10T07:30:35;12.90;;;6.77;;
18738;SDS011;9498;51.862;19.460;2023-06-10T07:33:02;16.90;;;7.17;;
18738;SDS011;9498;51.862;19.460;2023-06-10T07:35:32;17.23;;;7.47;;
18738;SDS011;9498;51.862;19.460;2023-06-10T07:38:00;13.80;;;7.13;;
18738;SDS011;9498;51.862;19.460;2023-06-10T07:40:27;13.73;;;6.87;;
18738;SDS011;9498;51.862;19.460;2023-06-10T07:42:55;12.97;;;7.27;;
18738;SDS011;9498;51.862;19.460;2023-06-10T07:45:23;14.53;;;6.93;;
18738;SDS011;9498;51.862;19.460;2023-06-10T07:47:50;12.23;;;6.80;;
18738;SDS011;9498;51.862;19.460;2023-06-10T07:50:18;19.77;;;7.10;;
18738;SDS011;9498;51.862;19.460;2023-06-10T07:52:45;10.97;;;6.60;;
18738;SDS011;9498;51.862;19.460;2023-06-10T07:55:12;14.10;;;6.37;;
18738;SDS011;9498;51.862;19.460;2023-06-10T07:57:40;12.87;;;6.27;;
18738;SDS011;9498;51.862;19.460;2023-06-10T08:00:09;13.90;;;6.90;;
18738;SDS011;9498;51.862;19.460;2023-06-10T08:02:37;14.33;;;6.70;;
18738;SDS011;9498;51.862;19.460;2023-06-10T08:05:04;10.40;;;6.60;;
18738;SDS011;9498;51.862;19.460;2023-06-10T08:07:32;11.10;;;6.23;;
18738;SDS011;9498;51.862;19.460;2023-06-10T08:09:59;12.03;;;6.63;;
18738;SDS011;9498;51.862;19.460;2023-06-10T08:12:26;10.68;;;6.63;;
18738;SDS011;9498;51.862;19.460;2023-06-10T08:14:53;8.90;;;5.77;;
18738;SDS011;9498;51.862;19.460;2023-06-10T08:17:22;12.20;;;6.67;;
18738;SDS011;9498;51.862;19.460;2023-06-10T08:19:50;14.63;;;5.97;;
18738;SDS011;9498;51.862;19.460;2023-06-10T08:22:17;10.83;;;6.07;;
18738;SDS011;9498;51.862;19.460;2023-06-10T08:24:44;9.50;;;5.77;;
18738;SDS011;9498;51.862;19.460;2023-06-10T08:27:12;9.77;;;6.07;;
18738;SDS011;9498;51.862;19.460;2023-06-10T08:29:39;13.10;;;6.03;;
18738;SDS011;9498;51.862;19.460;2023-06-10T08:32:07;10.60;;;6.00;;
18738;SDS011;9498;51.862;19.460;2023-06-10T08:34:36;11.77;;;6.00;;
18738;SDS011;9498;51.862;19.460;2023-06-10T08:37:03;8.27;;;5.37;;
18738;SDS011;9498;51.862;19.460;2023-06-10T08:39:31;11.00;;;5.90;;
18738;SDS011;9498;51.862;19.460;2023-06-10T08:42:00;12.50;;;5.50;;
18738;SDS011;9498;51.862;19.460;2023-06-10T08:44:31;11.77;;;5.50;;
18738;SDS011;9498;51.862;19.460;2023-06-10T08:47:03;11.87;;;5.50;;
18738;SDS011;9498;51.862;19.460;2023-06-10T08:49:34;11.37;;;6.23;;
18738;SDS011;9498;51.862;19.460;2023-06-10T08:52:05;9.00;;;5.60;;
18738;SDS011;9498;51.862;19.460;2023-06-10T08:54:33;11.00;;;5.70;;
18738;SDS011;9498;51.862;19.460;2023-06-10T08:57:03;10.90;;;5.53;;
18738;SDS011;9498;51.862;19.460;2023-06-10T08:59:31;10.00;;;5.80;;
18738;SDS011;9498;51.862;19.460;2023-06-10T09:01:58;16.07;;;6.17;;
18738;SDS011;9498;51.862;19.460;2023-06-10T09:04:26;11.37;;;5.23;;
18738;SDS011;9498;51.862;19.460;2023-06-10T09:06:53;13.00;;;5.60;;
18738;SDS011;9498;51.862;19.460;2023-06-10T09:09:23;10.25;;;5.70;;
18738;SDS011;9498;51.862;19.460;2023-06-10T09:11:50;12.73;;;5.30;;
18738;SDS011;9498;51.862;19.460;2023-06-10T09:14:17;8.93;;;4.87;;
18738;SDS011;9498;51.862;19.460;2023-06-10T09:16:45;8.63;;;5.20;;
18738;SDS011;9498;51.862;19.460;2023-06-10T09:19:13;17.10;;;5.03;;
18738;SDS011;9498;51.862;19.460;2023-06-10T09:21:41;7.43;;;4.70;;
18738;SDS011;9498;51.862;19.460;2023-06-10T09:24:08;11.80;;;4.68;;
18738;SDS011;9498;51.862;19.460;2023-06-10T09:26:38;8.77;;;4.27;;
18738;SDS011;9498;51.862;19.460;2023-06-10T09:29:06;12.37;;;4.40;;
18738;SDS011;9498;51.862;19.460;2023-06-10T09:31:37;12.57;;;4.73;;
18738;SDS011;9498;51.862;19.460;2023-06-10T09:34:05;21.67;;;4.50;;
18738;SDS011;9498;51.862;19.460;2023-06-10T09:36:33;10.23;;;4.40;;
18738;SDS011;9498;51.862;19.460;2023-06-10T09:39:00;8.13;;;4.03;;
18738;SDS011;9498;51.862;19.460;2023-06-10T09:41:34;11.87;;;4.50;;
18738;SDS011;9498;51.862;19.460;2023-06-10T09:44:12;9.13;;;4.00;;
18738;SDS011;9498;51.862;19.460;2023-06-10T09:46:40;12.10;;;4.60;;
18738;SDS011;9498;51.862;19.460;2023-06-10T09:49:08;10.97;;;4.17;;
18738;SDS011;9498;51.862;19.460;2023-06-10T09:51:35;9.60;;;4.13;;
18738;SDS011;9498;51.862;19.460;2023-06-10T09:54:03;10.07;;;4.20;;
18738;SDS011;9498;51.862;19.460;2023-06-10T09:56:33;9.70;;;4.27;;
18738;SDS011;9498;51.862;19.460;2023-06-10T09:59:02;9.53;;;3.70;;
18738;SDS011;9498;51.862;19.460;2023-06-10T10:01:31;11.37;;;3.60;;
18738;SDS011;9498;51.862;19.460;2023-06-10T10:03:59;8.63;;;3.77;;
18738;SDS011;9498;51.862;19.460;2023-06-10T10:06:27;5.93;;;3.60;;
18738;SDS011;9498;51.862;19.460;2023-06-10T10:08:55;6.90;;;3.83;;
18738;SDS011;9498;51.862;19.460;2023-06-10T10:11:22;9.37;;;4.40;;
18738;SDS011;9498;51.862;19.460;2023-06-10T10:13:51;10.45;;;4.20;;
18738;SDS011;9498;51.862;19.460;2023-06-10T10:16:21;8.10;;;4.20;;
18738;SDS011;9498;51.862;19.460;2023-06-10T10:18:51;7.40;;;3.80;;
18738;SDS011;9498;51.862;19.460;2023-06-10T10:21:21;11.03;;;4.00;;
18738;SDS011;9498;51.862;19.460;2023-06-10T10:23:51;8.83;;;3.83;;
18738;SDS011;9498;51.862;19.460;2023-06-10T10:26:20;9.30;;;3.83;;
18738;SDS011;9498;51.862;19.460;2023-06-10T10:28:50;6.97;;;3.88;;
18738;SDS011;9498;51.862;19.460;2023-06-10T10:31:18;5.67;;;3.70;;
18738;SDS011;9498;51.862;19.460;2023-06-10T10:33:51;8.13;;;3.73;;
18738;SDS011;9498;51.862;19.460;2023-06-10T10:36:19;7.13;;;3.90;;
18738;SDS011;9498;51.862;19.460;2023-06-10T10:38:47;8.80;;;4.07;;
18738;SDS011;9498;51.862;19.460;2023-06-10T10:41:15;8.00;;;4.07;;
18738;SDS011;9498;51.862;19.460;2023-06-10T10:43:43;10.60;;;3.97;;
18738;SDS011;9498;51.862;19.460;2023-06-10T10:46:11;10.23;;;4.57;;
18738;SDS011;9498;51.862;19.460;2023-06-10T10:48:39;10.77;;;4.13;;
18738;SDS011;9498;51.862;19.460;2023-06-10T10:51:08;10.37;;;3.97;;
18738;SDS011;9498;51.862;19.460;2023-06-10T10:53:37;10.40;;;4.23;;
18738;SDS011;9498;51.862;19.460;2023-06-10T10:56:05;8.03;;;3.90;;
18738;SDS011;9498;51.862;19.460;2023-06-10T10:58:32;7.93;;;4.00;;
18738;SDS011;9498;51.862;19.460;2023-06-10T11:01:00;6.53;;;3.90;;
18738;SDS011;9498;51.862;19.460;2023-06-10T11:03:41;6.67;;;3.93;;
18738;SDS011;9498;51.862;19.460;2023-06-10T11:06:13;10.80;;;4.43;;
18738;SDS011;9498;51.862;19.460;2023-06-10T11:08:47;9.60;;;4.22;;
18738;SDS011;9498;51.862;19.460;2023-06-10T11:11:19;7.27;;;3.80;;
18738;SDS011;9498;51.862;19.460;2023-06-10T11:13:57;8.83;;;3.87;;
18738;SDS011;9498;51.862;19.460;2023-06-10T11:16:26;6.93;;;4.20;;
18738;SDS011;9498;51.862;19.460;2023-06-10T11:18:54;9.53;;;4.43;;
18738;SDS011;9498;51.862;19.460;2023-06-10T11:21:24;9.10;;;4.07;;
18738;SDS011;9498;51.862;19.460;2023-06-10T11:23:51;5.87;;;3.77;;
18738;SDS011;9498;51.862;19.460;2023-06-10T11:29:05;7.37;;;3.97;;
18738;SDS011;9498;51.862;19.460;2023-06-10T11:31:33;5.70;;;3.47;;
18738;SDS011;9498;51.862;19.460;2023-06-10T11:34:05;8.40;;;3.93;;
18738;SDS011;9498;51.862;19.460;2023-06-10T11:36:37;6.97;;;3.70;;
18738;SDS011;9498;51.862;19.460;2023-06-10T11:39:08;11.13;;;4.10;;
18738;SDS011;9498;51.862;19.460;2023-06-10T11:41:36;11.97;;;4.00;;
18738;SDS011;9498;51.862;19.460;2023-06-10T11:44:07;9.77;;;3.67;;
18738;SDS011;9498;51.862;19.460;2023-06-10T11:46:34;6.93;;;4.00;;
18738;SDS011;9498;51.862;19.460;2023-06-10T11:49:02;9.20;;;3.67;;
18738;SDS011;9498;51.862;19.460;2023-06-10T11:51:32;8.43;;;3.63;;
18738;SDS011;9498;51.862;19.460;2023-06-10T11:54:01;8.50;;;3.78;;
18738;SDS011;9498;51.862;19.460;2023-06-10T11:56:29;14.73;;;3.57;;
18738;SDS011;9498;51.862;19.460;2023-06-10T11:58:58;8.57;;;4.10;;
18738;SDS011;9498;51.862;19.460;2023-06-10T12:01:29;5.60;;;3.93;;
18738;SDS011;9498;51.862;19.460;2023-06-10T12:03:57;7.93;;;4.07;;
18738;SDS011;9498;51.862;19.460;2023-06-10T12:06:25;8.13;;;3.97;;
18738;SDS011;9498;51.862;19.460;2023-06-10T12:08:53;8.37;;;3.70;;
18738;SDS011;9498;51.862;19.460;2023-06-10T12:11:21;7.60;;;3.50;;
18738;SDS011;9498;51.862;19.460;2023-06-10T12:13:49;12.97;;;4.00;;
18738;SDS011;9498;51.862;19.460;2023-06-10T12:16:16;9.83;;;4.07;;
18738;SDS011;9498;51.862;19.460;2023-06-10T12:18:45;6.77;;;3.70;;
18738;SDS011;9498;51.862;19.460;2023-06-10T12:21:17;7.67;;;3.80;;
18738;SDS011;9498;51.862;19.460;2023-06-10T12:24:01;9.83;;;4.17;;
18738;SDS011;9498;51.862;19.460;2023-06-10T12:26:37;11.07;;;4.67;;
18738;SDS011;9498;51.862;19.460;2023-06-10T12:29:18;8.37;;;3.73;;
18738;SDS011;9498;51.862;19.460;2023-06-10T12:31:55;8.83;;;3.63;;
18738;SDS011;9498;51.862;19.460;2023-06-10T12:37:12;8.17;;;3.70;;
18738;SDS011;9498;51.862;19.460;2023-06-10T12:39:40;9.27;;;3.90;;
18738;SDS011;9498;51.862;19.460;2023-06-10T12:42:11;5.40;;;3.37;;
18738;SDS011;9498;51.862;19.460;2023-06-10T12:44:39;9.40;;;3.70;;
18738;SDS011;9498;51.862;19.460;2023-06-10T12:47:07;9.30;;;3.70;;
18738;SDS011;9498;51.862;19.460;2023-06-10T12:49:35;6.77;;;3.60;;
18738;SDS011;9498;51.862;19.460;2023-06-10T12:52:04;8.93;;;4.10;;
18738;SDS011;9498;51.862;19.460;2023-06-10T12:54:31;12.37;;;3.73;;
18738;SDS011;9498;51.862;19.460;2023-06-10T12:56:59;6.77;;;3.93;;
18738;SDS011;9498;51.862;19.460;2023-06-10T12:59:28;10.23;;;4.03;;
18738;SDS011;9498;51.862;19.460;2023-06-10T13:01:57;12.77;;;3.83;;
18738;SDS011;9498;51.862;19.460;2023-06-10T13:04:24;7.03;;;4.27;;
18738;SDS011;9498;51.862;19.460;2023-06-10T13:06:52;13.63;;;4.07;;
18738;SDS011;9498;51.862;19.460;2023-06-10T13:09:19;6.17;;;3.63;;
18738;SDS011;9498;51.862;19.460;2023-06-10T13:11:46;12.33;;;4.57;;
18738;SDS011;9498;51.862;19.460;2023-06-10T13:14:14;8.20;;;3.90;;
18738;SDS011;9498;51.862;19.460;2023-06-10T13:16:42;10.43;;;3.57;;
18738;SDS011;9498;51.862;19.460;2023-06-10T13:19:10;9.60;;;3.43;;
18738;SDS011;9498;51.862;19.460;2023-06-10T13:21:37;8.63;;;3.73;;
18738;SDS011;9498;51.862;19.460;2023-06-10T13:24:05;6.63;;;4.00;;
18738;SDS011;9498;51.862;19.460;2023-06-10T13:26:32;5.40;;;3.40;;
18738;SDS011;9498;51.862;19.460;2023-06-10T13:29:00;7.67;;;3.90;;
18738;SDS011;9498;51.862;19.460;2023-06-10T13:31:28;7.90;;;3.77;;
18738;SDS011;9498;51.862;19.460;2023-06-10T13:33:56;13.53;;;3.77;;
18738;SDS011;9498;51.862;19.460;2023-06-10T13:36:24;10.73;;;3.30;;
18738;SDS011;9498;51.862;19.460;2023-06-10T13:38:51;13.10;;;3.67;;
18738;SDS011;9498;51.862;19.460;2023-06-10T13:41:19;9.37;;;3.30;;
18738;SDS011;9498;51.862;19.460;2023-06-10T13:43:46;7.77;;;3.40;;
18738;SDS011;9498;51.862;19.460;2023-06-10T13:46:13;9.67;;;3.70;;
18738;SDS011;9498;51.862;19.460;2023-06-10T13:48:41;8.63;;;4.17;;
18738;SDS011;9498;51.862;19.460;2023-06-10T13:51:09;10.80;;;3.57;;
18738;SDS011;9498;51.862;19.460;2023-06-10T13:53:37;7.73;;;3.40;;
18738;SDS011;9498;51.862;19.460;2023-06-10T13:56:04;10.80;;;3.57;;
18738;SDS011;9498;51.862;19.460;2023-06-10T13:58:32;8.53;;;3.30;;
18738;SDS011;9498;51.862;19.460;2023-06-10T14:01:03;7.37;;;2.97;;
18738;SDS011;9498;51.862;19.460;2023-06-10T14:03:31;6.03;;;3.50;;
18738;SDS011;9498;51.862;19.460;2023-06-10T14:05:58;6.67;;;3.40;;
18738;SDS011;9498;51.862;19.460;2023-06-10T14:08:27;5.77;;;3.17;;
18738;SDS011;9498;51.862;19.460;2023-06-10T14:10:55;11.57;;;3.57;;
18738;SDS011;9498;51.862;19.460;2023-06-10T14:13:22;6.40;;;3.30;;
18738;SDS011;9498;51.862;19.460;2023-06-10T14:15:49;6.20;;;3.07;;
18738;SDS011;9498;51.862;19.460;2023-06-10T14:18:16;7.13;;;3.53;;
18738;SDS011;9498;51.862;19.460;2023-06-10T14:20:44;6.17;;;3.47;;
18738;SDS011;9498;51.862;19.460;2023-06-10T14:23:11;10.77;;;3.30;;
18738;SDS011;9498;51.862;19.460;2023-06-10T14:25:40;10.23;;;3.37;;
18738;SDS011;9498;51.862;19.460;2023-06-10T14:28:07;8.13;;;3.50;;
18738;SDS011;9498;51.862;19.460;2023-06-10T14:30:34;6.23;;;3.47;;
18738;SDS011;9498;51.862;19.460;2023-06-10T14:33:02;10.00;;;3.30;;
18738;SDS011;9498;51.862;19.460;2023-06-10T14:35:29;8.53;;;3.47;;
18738;SDS011;9498;51.862;19.460;2023-06-10T14:37:57;7.97;;;3.43;;
18738;SDS011;9498;51.862;19.460;2023-06-10T14:40:24;8.83;;;3.33;;
18738;SDS011;9498;51.862;19.460;2023-06-10T14:42:55;8.50;;;3.43;;
18738;SDS011;9498;51.862;19.460;2023-06-10T14:45:22;7.07;;;3.30;;